Strona główna
METAR-TAF:

METAR-TAF

Lotnisko :

Port lotniczy Sármellék

Hévíz, Węgry

Szerokość geograficzna: 46-41-11N, Długość geograficzna: 017-09-33E, wysokość: 124 m

Aktualna obserwacja pogody

Raport powstał 31 minut temu, godzina 00:15 UTC
Wiatr 17 kt od północ w porywach dochodzący do 27 kt
Temperatura 5°C
Wilgotność 70%
Ciśnienie 1021 hPa
Widzialność 10 km lub więcej
Brak chmur poniżej 1500 m i brak chmur cumulonimbus

METAR: LHSM 130015Z AUTO 36017G27KT CAVOK 05/00 Q1021

czas: 02:46 (00:46 UTC)

Prognoza

Raport powstał 7 godziny i 31 minut temu, godzina 17:15 UTC
Prognoza ważna od 12 godzina 18 UTC do 13 godzina 03 UTC
Wiatr 28 kt od północ w porywach dochodzący do 42 kt
Widzialność 10 km lub więcej
Przerywane chmury na wysokości 2000 ft
Przejściowo
od 12 godzina 18 UTC do 13 godzina 03 UTC
Widzialność: 3000 m
Zachmurzenie całkowite na wysokości 1000 ft
deszcz

TAF: LHSM 121715Z 1218/1303 36028G42KT 9999 BKN020 TEMPO 1218/1303 3000 RA OVC010

Obserwacja i prognoza pogody dla ponad 4000 lotnisk (raport METAR i TAF).

Dostępne stacje oznaczono żółtymi i czerwonymi punktami na mapie.

Najedź kursorem aby zobaczyć nazwę stacji.

Kliknij aby zobaczyć obserwacje i prognozy pogody.

Aby zmienić mapę: kliknij na zielony przycisk z czarnym krzyżykiem, aby powiększyć; na zielony przycisk z myślnikiem, aby pomniejszyć; na zielone strzałki, aby przejść do map sąsiednich.


METAR-TAF: